createdAt,value
2018-10-18T00:00:49.820Z,48.77
2018-10-18T00:01:53.439Z,50.53
2018-10-18T00:02:57.017Z,48.70
2018-10-18T00:04:00.619Z,50.97
2018-10-18T00:05:04.616Z,48.77
2018-10-18T00:06:08.258Z,51.20
2018-10-18T00:07:11.818Z,51.67
2018-10-18T00:08:15.493Z,51.17
2018-10-18T00:09:19.015Z,49.57
2018-10-18T00:10:22.632Z,49.80
2018-10-18T00:11:26.232Z,51.13
2018-10-18T00:12:29.823Z,51.60
2018-10-18T00:13:33.422Z,49.13
2018-10-18T00:14:37.035Z,47.27
2018-10-18T00:15:40.647Z,50.10
2018-10-18T00:16:44.247Z,49.10
2018-10-18T00:17:48.383Z,49.43
2018-10-18T00:18:51.985Z,47.23
2018-10-18T00:19:55.613Z,48.47
2018-10-18T00:20:59.284Z,45.17
2018-10-18T00:22:02.851Z,46.00
2018-10-18T00:23:06.488Z,46.33
2018-10-18T00:24:10.160Z,44.60
2018-10-18T00:25:14.166Z,45.97
2018-10-18T00:26:17.800Z,49.60
2018-10-18T00:27:21.440Z,46.43
2018-10-18T00:28:25.031Z,44.63
2018-10-18T00:29:28.723Z,46.80
2018-10-18T00:30:32.332Z,47.10
2018-10-18T00:31:35.920Z,46.53
2018-10-18T00:32:39.660Z,46.50
2018-10-18T00:33:43.260Z,44.43
2018-10-18T00:34:46.847Z,46.93
2018-10-18T00:35:50.435Z,47.20
2018-10-18T00:36:54.023Z,46.67
2018-10-18T00:37:57.638Z,47.37
2018-10-18T00:39:01.232Z,47.60
2018-10-18T00:40:05.756Z,46.40
2018-10-18T00:41:09.346Z,45.13
2018-10-18T00:42:13.012Z,46.43
2018-10-18T00:43:16.534Z,46.83
2018-10-18T00:44:20.138Z,44.90
2018-10-18T00:45:23.743Z,45.53
2018-10-18T00:46:27.354Z,44.47
2018-10-18T00:47:30.986Z,47.00
2018-10-18T00:48:34.561Z,46.97
2018-10-18T00:49:38.163Z,46.10
2018-10-18T00:50:41.756Z,46.33
2018-10-18T00:51:45.352Z,45.63
2018-10-18T00:52:48.951Z,46.00
2018-10-18T00:53:52.605Z,44.67
2018-10-18T00:54:56.155Z,47.40
2018-10-18T00:55:59.777Z,46.10
2018-10-18T00:57:03.357Z,44.20
2018-10-18T00:58:06.949Z,46.33
2018-10-18T00:59:10.547Z,44.33
2018-10-18T01:00:14.195Z,45.87
2018-10-18T01:01:17.740Z,46.00
2018-10-18T01:02:21.343Z,46.77
2018-10-18T01:03:24.940Z,48.47
2018-10-18T01:04:28.531Z,46.20
2018-10-18T01:05:32.119Z,45.20
2018-10-18T01:06:35.707Z,44.73
2018-10-18T01:07:39.307Z,45.80
2018-10-18T01:08:43.000Z,45.60
2018-10-18T01:09:46.575Z,45.17
2018-10-18T01:10:50.160Z,47.40
2018-10-18T01:11:53.818Z,47.10
2018-10-18T01:12:57.359Z,44.97
2018-10-18T01:14:01.008Z,48.53
2018-10-18T01:15:04.888Z,44.57
2018-10-18T01:16:08.492Z,45.40
2018-10-18T01:17:12.131Z,45.53
2018-10-18T01:18:15.787Z,44.30
2018-10-18T01:19:19.304Z,45.37
2018-10-18T01:20:22.907Z,46.87
2018-10-18T01:21:26.499Z,45.13
2018-10-18T01:22:30.091Z,43.90
2018-10-18T01:23:33.776Z,43.33
2018-10-18T01:24:37.574Z,43.37
2018-10-18T01:25:41.140Z,42.97
2018-10-18T01:26:44.728Z,43.37
2018-10-18T01:27:48.328Z,43.10
2018-10-18T01:28:51.915Z,42.90
2018-10-18T01:29:55.567Z,41.53
2018-10-18T01:30:59.118Z,42.43
2018-10-18T01:32:03.445Z,42.60
2018-10-18T01:33:07.028Z,44.40
2018-10-18T01:34:10.636Z,43.37
2018-10-18T01:35:14.224Z,43.10
2018-10-18T01:36:17.877Z,44.50
2018-10-18T01:37:21.423Z,42.27
2018-10-18T01:38:25.007Z,43.50
2018-10-18T01:39:28.609Z,44.03
2018-10-18T01:40:32.747Z,43.47
2018-10-18T01:41:36.359Z,44.70
2018-10-18T01:42:39.948Z,42.77
2018-10-18T01:43:43.631Z,42.20
2018-10-18T01:44:47.211Z,41.40
2018-10-18T01:45:50.787Z,39.93
2018-10-18T01:46:54.379Z,39.57
2018-10-18T01:47:57.975Z,39.80
2018-10-18T01:49:01.580Z,39.77
2018-10-18T01:50:06.428Z,36.87
2018-10-18T01:51:09.999Z,36.23
2018-10-18T01:52:13.595Z,37.87
2018-10-18T01:53:17.189Z,37.10
2018-10-18T01:54:20.795Z,35.20
2018-10-18T01:55:24.386Z,38.80
2018-10-18T01:56:27.981Z,36.67
2018-10-18T01:57:31.567Z,38.73
2018-10-18T01:58:35.155Z,37.47
2018-10-18T01:59:38.775Z,38.27
2018-10-18T02:00:42.384Z,37.40
2018-10-18T02:01:45.998Z,36.80
2018-10-18T02:02:49.563Z,36.93
2018-10-18T02:03:53.153Z,36.90
2018-10-18T02:04:56.745Z,34.97
2018-10-18T02:06:00.343Z,35.87
2018-10-18T02:07:03.933Z,34.93
2018-10-18T02:08:07.579Z,34.73
2018-10-18T02:09:12.119Z,35.37
2018-10-18T02:10:15.712Z,37.10
2018-10-18T02:11:19.308Z,38.57
2018-10-18T02:12:22.904Z,39.27
2018-10-18T02:13:26.537Z,38.00
2018-10-18T02:14:30.075Z,42.97
2018-10-18T02:15:33.672Z,42.03
2018-10-18T02:16:37.295Z,41.63
2018-10-18T02:17:41.319Z,42.30
2018-10-18T02:18:45.191Z,43.63
2018-10-18T02:19:48.785Z,41.63
2018-10-18T02:20:52.535Z,43.67
2018-10-18T02:21:56.131Z,41.60
2018-10-18T02:22:59.751Z,45.10
2018-10-18T02:24:03.350Z,42.97
2018-10-18T02:25:07.237Z,43.97
2018-10-18T02:26:10.892Z,41.97
2018-10-18T02:27:14.522Z,41.00
2018-10-18T02:28:18.083Z,39.40
2018-10-18T02:29:21.676Z,38.23
2018-10-18T02:30:25.281Z,38.27
2018-10-18T02:31:28.883Z,36.53
2018-10-18T02:32:32.473Z,36.97
2018-10-18T02:33:36.064Z,37.13
2018-10-18T02:34:39.657Z,37.13
2018-10-18T02:35:43.257Z,36.90
2018-10-18T02:36:46.855Z,34.17
2018-10-18T02:37:50.534Z,34.97
2018-10-18T02:38:54.108Z,35.20
2018-10-18T02:39:57.702Z,34.33
2018-10-18T02:41:01.303Z,35.13
2018-10-18T02:42:05.593Z,35.10
2018-10-18T02:43:09.114Z,37.63
2018-10-18T02:44:12.699Z,34.90
2018-10-18T02:45:16.303Z,34.57
2018-10-18T02:46:19.909Z,35.27
2018-10-18T02:47:23.639Z,35.50
2018-10-18T02:48:27.253Z,34.93
2018-10-18T02:49:30.831Z,34.00
2018-10-18T02:50:34.430Z,36.03
2018-10-18T02:51:38.020Z,34.57
2018-10-18T02:52:41.615Z,34.93
2018-10-18T02:53:45.221Z,34.27
2018-10-18T02:54:48.924Z,35.17
2018-10-18T02:55:52.587Z,32.70
2018-10-18T02:56:56.151Z,34.70
2018-10-18T02:57:59.736Z,35.30
2018-10-18T02:59:03.427Z,35.57
2018-10-18T03:00:07.253Z,34.43
2018-10-18T03:01:10.820Z,35.67
2018-10-18T03:02:14.411Z,34.43
2018-10-18T03:03:18.004Z,38.10
2018-10-18T03:04:21.618Z,35.87
2018-10-18T03:05:25.204Z,35.53
2018-10-18T03:06:28.796Z,32.33
2018-10-18T03:07:32.388Z,35.17
2018-10-18T03:08:35.980Z,36.07
2018-10-18T03:09:39.569Z,32.70
2018-10-18T03:10:43.203Z,35.13
2018-10-18T03:11:46.853Z,34.40
2018-10-18T03:12:50.416Z,36.73
2018-10-18T03:13:54.015Z,33.70
2018-10-18T03:14:57.613Z,34.23
2018-10-18T03:16:01.224Z,32.17
2018-10-18T03:17:05.343Z,33.60
2018-10-18T03:18:09.079Z,35.97
2018-10-18T03:19:12.588Z,37.13
2018-10-18T03:20:16.197Z,35.67
2018-10-18T03:21:19.884Z,35.50
2018-10-18T03:22:23.476Z,36.70
2018-10-18T03:23:27.043Z,36.47
2018-10-18T03:24:30.635Z,37.60
2018-10-18T03:25:34.244Z,38.00
2018-10-18T03:26:37.851Z,37.13
2018-10-18T03:27:41.448Z,38.33
2018-10-18T03:28:45.036Z,36.77
2018-10-18T03:29:48.640Z,36.77
2018-10-18T03:30:52.240Z,36.47
2018-10-18T03:31:55.839Z,38.20
2018-10-18T03:32:59.454Z,36.80
2018-10-18T03:34:03.039Z,38.57
2018-10-18T03:35:07.239Z,37.10
2018-10-18T03:36:10.914Z,38.17
2018-10-18T03:37:14.452Z,38.03
2018-10-18T03:38:18.148Z,37.47
2018-10-18T03:39:21.731Z,38.77
2018-10-18T03:40:25.307Z,37.30
2018-10-18T03:41:28.969Z,38.50
2018-10-18T03:42:32.508Z,37.47
2018-10-18T03:43:36.143Z,37.53
2018-10-18T03:44:39.794Z,37.30
2018-10-18T03:45:43.385Z,35.50
2018-10-18T03:46:47.006Z,36.50
2018-10-18T03:47:50.675Z,34.87
2018-10-18T03:48:54.271Z,34.07
2018-10-18T03:49:57.872Z,34.90
2018-10-18T03:51:01.483Z,34.90
2018-10-18T03:52:05.700Z,35.93
2018-10-18T03:53:09.310Z,33.73
2018-10-18T03:54:13.026Z,36.17
2018-10-18T03:55:16.532Z,34.30
2018-10-18T03:56:20.129Z,36.30
2018-10-18T03:57:23.719Z,34.77
2018-10-18T03:58:27.491Z,32.00
2018-10-18T03:59:31.151Z,31.90
2018-10-18T04:00:34.712Z,33.73
2018-10-18T04:01:38.307Z,32.23
2018-10-18T04:02:41.906Z,31.93
2018-10-18T04:03:45.549Z,30.43
2018-10-18T04:04:49.118Z,31.73
2018-10-18T04:05:52.772Z,30.83
2018-10-18T04:06:56.367Z,30.03
2018-10-18T04:07:59.963Z,29.80
2018-10-18T04:09:05.033Z,28.00
2018-10-18T04:10:08.828Z,28.43
2018-10-18T04:11:12.439Z,27.43
2018-10-18T04:12:16.099Z,27.03
2018-10-18T04:13:19.717Z,27.17
2018-10-18T04:14:23.231Z,26.70
2018-10-18T04:15:26.835Z,25.03
2018-10-18T04:16:30.472Z,26.67
2018-10-18T04:17:34.166Z,26.87
2018-10-18T04:18:37.740Z,27.70
2018-10-18T04:19:41.327Z,28.30
2018-10-18T04:20:44.923Z,26.47
2018-10-18T04:21:48.525Z,26.07
2018-10-18T04:22:52.119Z,27.37
2018-10-18T04:23:55.745Z,26.13
2018-10-18T04:24:59.400Z,25.03
2018-10-18T04:26:03.893Z,26.60
2018-10-18T04:27:07.497Z,27.17
2018-10-18T04:28:11.302Z,27.43
2018-10-18T04:29:14.887Z,26.93
2018-10-18T04:30:18.550Z,24.70
2018-10-18T04:31:22.060Z,26.57
2018-10-18T04:32:25.651Z,27.20
2018-10-18T04:33:29.271Z,26.07
2018-10-18T04:34:32.868Z,25.07
2018-10-18T04:35:36.467Z,25.70
2018-10-18T04:36:40.122Z,26.13
2018-10-18T04:37:43.716Z,27.27
2018-10-18T04:38:47.306Z,24.90
2018-10-18T04:39:50.895Z,25.00
2018-10-18T04:40:54.497Z,24.70
2018-10-18T04:41:58.151Z,25.13
2018-10-18T04:43:01.698Z,24.60
2018-10-18T04:44:05.292Z,24.03
2018-10-18T04:45:09.218Z,23.80
2018-10-18T04:46:12.949Z,23.23
2018-10-18T04:47:17.111Z,25.70
2018-10-18T04:48:20.772Z,22.03
2018-10-18T04:49:24.219Z,22.93
2018-10-18T04:50:27.871Z,22.80
2018-10-18T04:51:31.475Z,23.67
2018-10-18T04:52:35.067Z,21.97
2018-10-18T04:53:38.660Z,22.83
2018-10-18T04:54:42.261Z,22.67
2018-10-18T04:55:45.877Z,23.33
2018-10-18T04:56:49.519Z,23.90
2018-10-18T04:57:53.072Z,22.00
2018-10-18T04:58:56.666Z,22.00
2018-10-18T05:00:00.263Z,22.27
2018-10-18T05:01:03.880Z,24.50
2018-10-18T05:02:07.497Z,24.13
2018-10-18T05:03:11.116Z,24.77
2018-10-18T05:04:14.731Z,24.70
2018-10-18T05:05:29.884Z,25.23
2018-10-18T05:06:34.471Z,26.10
2018-10-18T05:07:38.092Z,26.60
2018-10-18T05:08:41.687Z,25.60
2018-10-18T05:09:45.351Z,25.43
2018-10-18T05:10:49.147Z,26.87
2018-10-18T05:11:52.739Z,28.27
2018-10-18T05:12:56.351Z,27.10
2018-10-18T05:13:59.948Z,26.57
2018-10-18T05:15:03.539Z,28.40
2018-10-18T05:16:07.143Z,28.90
2018-10-18T05:17:10.819Z,29.30
2018-10-18T05:18:14.551Z,27.53
2018-10-18T05:19:18.247Z,29.43
2018-10-18T05:20:21.762Z,28.20
2018-10-18T05:21:25.359Z,27.87
2018-10-18T05:22:28.972Z,28.70
2018-10-18T05:23:32.572Z,29.23
2018-10-18T05:24:36.179Z,29.27
2018-10-18T05:25:39.954Z,29.03
2018-10-18T05:26:43.515Z,31.27
2018-10-18T05:27:47.099Z,30.77
2018-10-18T05:28:50.711Z,29.53
2018-10-18T05:29:54.315Z,30.30
2018-10-18T05:30:57.956Z,30.33
2018-10-18T05:32:01.525Z,30.80
2018-10-18T05:33:05.488Z,31.27
2018-10-18T05:34:09.107Z,29.57
2018-10-18T05:35:12.850Z,32.03
2018-10-18T05:36:16.441Z,32.10
2018-10-18T05:37:20.062Z,32.87
2018-10-18T05:38:23.651Z,31.70
2018-10-18T05:39:27.255Z,32.20
2018-10-18T05:40:30.851Z,33.63
2018-10-18T05:41:34.443Z,32.90
2018-10-18T05:42:38.085Z,31.53
2018-10-18T05:43:41.675Z,32.67
2018-10-18T05:44:45.435Z,31.90
2018-10-18T05:45:49.031Z,34.10
2018-10-18T05:46:52.721Z,33.73
2018-10-18T05:47:56.277Z,32.70
2018-10-18T05:48:59.971Z,34.60
2018-10-18T05:50:03.635Z,34.07
2018-10-18T05:51:07.244Z,34.77
2018-10-18T05:52:10.839Z,34.93
2018-10-18T05:53:14.623Z,33.83
2018-10-18T05:54:18.183Z,33.80
2018-10-18T05:55:21.768Z,34.53
2018-10-18T05:56:25.354Z,34.50
2018-10-18T05:57:28.946Z,34.23
2018-10-18T05:58:32.658Z,31.90
2018-10-18T05:59:36.228Z,31.67
2018-10-18T06:00:39.823Z,31.67
2018-10-18T06:01:43.419Z,31.67
2018-10-18T06:02:47.282Z,33.63
2018-10-18T06:03:50.877Z,32.53
2018-10-18T06:04:54.503Z,31.83
2018-10-18T06:05:58.103Z,32.60
2018-10-18T06:07:01.842Z,31.07
2018-10-18T06:08:05.588Z,31.33
2018-10-18T06:09:11.403Z,32.97
2018-10-18T06:10:27.313Z,28.83
2018-10-18T06:11:32.400Z,30.23
2018-10-18T06:12:36.016Z,30.37
2018-10-18T06:13:39.634Z,29.47
2018-10-18T06:14:43.227Z,30.17
2018-10-18T06:15:46.833Z,30.03
2018-10-18T06:16:50.419Z,31.00
2018-10-18T06:17:54.023Z,30.60
2018-10-18T06:18:57.681Z,30.37
2018-10-18T06:20:01.222Z,30.50
2018-10-18T06:21:04.951Z,28.17
2018-10-18T06:22:08.548Z,30.90
2018-10-18T06:23:12.182Z,30.57
2018-10-18T06:24:15.742Z,28.80
2018-10-18T06:25:19.363Z,29.17
2018-10-18T06:26:22.960Z,29.23
2018-10-18T06:27:26.554Z,28.43
2018-10-18T06:28:30.358Z,29.67
2018-10-18T06:29:34.175Z,29.40
2018-10-18T06:30:37.763Z,28.10
2018-10-18T06:31:41.644Z,29.87
2018-10-18T06:32:45.225Z,29.77
2018-10-18T06:33:49.019Z,27.50
2018-10-18T06:34:52.684Z,28.47
2018-10-18T06:35:56.227Z,28.23
2018-10-18T06:36:59.845Z,29.93
2018-10-18T06:38:03.421Z,28.83
2018-10-18T06:39:08.529Z,28.33
2018-10-18T06:40:15.799Z,29.03
2018-10-18T06:41:19.397Z,29.17
2018-10-18T06:42:22.991Z,30.00
2018-10-18T06:43:26.592Z,30.07
2018-10-18T06:44:30.193Z,27.00
2018-10-18T06:45:33.878Z,27.70
2018-10-18T06:46:37.456Z,28.60
2018-10-18T06:47:41.908Z,27.87
2018-10-18T06:48:45.576Z,28.53
2018-10-18T06:49:49.161Z,27.87
2018-10-18T06:50:52.761Z,26.03
2018-10-18T06:51:56.389Z,27.93
2018-10-18T06:53:00.024Z,26.00
2018-10-18T06:54:03.636Z,27.23
2018-10-18T06:55:07.400Z,27.17
2018-10-18T06:56:10.999Z,26.87
2018-10-18T06:57:14.784Z,26.03
2018-10-18T06:58:18.385Z,25.70
2018-10-18T06:59:21.989Z,26.93
2018-10-18T07:00:25.728Z,27.17
2018-10-18T07:01:29.348Z,24.43
2018-10-18T07:02:32.948Z,22.40
2018-10-18T07:03:36.691Z,25.23
2018-10-18T07:04:40.351Z,24.03
2018-10-18T07:05:43.935Z,22.47
2018-10-18T07:06:47.631Z,22.77
2018-10-18T07:07:51.221Z,21.97
2018-10-18T07:08:54.976Z,22.93
2018-10-18T07:09:58.483Z,22.70
2018-10-18T07:11:02.229Z,21.23
2018-10-18T07:12:06.074Z,22.60
2018-10-18T07:13:09.572Z,21.97
2018-10-18T07:14:13.171Z,22.03
2018-10-18T07:15:16.944Z,20.67
2018-10-18T07:16:20.603Z,23.00
2018-10-18T07:17:24.218Z,22.93
2018-10-18T07:18:27.808Z,21.97
2018-10-18T07:19:31.406Z,21.67
2018-10-18T07:20:34.995Z,21.33
2018-10-18T07:21:38.619Z,20.40
2018-10-18T07:22:42.371Z,21.47
2018-10-18T07:23:45.997Z,20.70
2018-10-18T07:24:49.693Z,20.60
2018-10-18T07:25:53.279Z,21.80
2018-10-18T07:26:56.870Z,20.27
2018-10-18T07:28:00.676Z,20.40
2018-10-18T07:29:04.461Z,20.63
2018-10-18T07:30:09.537Z,20.83
2018-10-18T07:31:13.077Z,20.97
2018-10-18T07:32:16.654Z,20.60
2018-10-18T07:33:20.255Z,20.23
2018-10-18T07:34:23.835Z,20.10
2018-10-18T07:35:27.423Z,18.87
2018-10-18T07:36:31.011Z,19.90
2018-10-18T07:37:34.624Z,20.07
2018-10-18T07:38:38.321Z,18.77
2018-10-18T07:39:42.006Z,19.50
2018-10-18T07:40:45.609Z,18.73
2018-10-18T07:41:49.180Z,18.60
2018-10-18T07:42:52.778Z,18.30
2018-10-18T07:43:56.363Z,18.93
2018-10-18T07:45:00.133Z,18.47
2018-10-18T07:46:03.957Z,18.83
2018-10-18T07:47:07.620Z,19.00
2018-10-18T07:48:11.283Z,17.53
2018-10-18T07:49:14.823Z,18.30
2018-10-18T07:50:18.418Z,16.30
2018-10-18T07:51:22.011Z,15.53
2018-10-18T07:52:25.608Z,14.67
2018-10-18T07:53:29.216Z,14.53
2018-10-18T07:54:32.883Z,13.97
2018-10-18T07:55:36.455Z,13.20
2018-10-18T07:56:40.043Z,14.40
2018-10-18T07:57:43.638Z,13.50
2018-10-18T07:58:47.240Z,14.03
2018-10-18T07:59:50.989Z,14.57
2018-10-18T08:00:54.522Z,14.03
2018-10-18T08:01:58.220Z,13.80
2018-10-18T08:03:01.835Z,13.90
2018-10-18T08:04:05.917Z,15.50
2018-10-18T08:05:10.112Z,14.57
2018-10-18T08:06:13.711Z,14.97
2018-10-18T08:07:17.394Z,16.73
2018-10-18T08:08:20.931Z,14.80
2018-10-18T08:09:24.535Z,15.10
2018-10-18T08:10:28.148Z,14.90
2018-10-18T08:11:31.752Z,16.20
2018-10-18T08:12:35.410Z,15.87
2018-10-18T08:13:38.963Z,16.33
2018-10-18T08:14:42.547Z,14.10
2018-10-18T08:15:46.143Z,14.47
2018-10-18T08:16:49.800Z,15.20
2018-10-18T08:17:53.323Z,15.07
2018-10-18T08:18:56.968Z,15.47
2018-10-18T08:20:00.548Z,16.07
2018-10-18T08:21:04.480Z,14.77
2018-10-18T08:22:08.075Z,15.20
2018-10-18T08:23:11.711Z,15.50
2018-10-18T08:24:15.306Z,15.40
2018-10-18T08:25:18.980Z,15.00
2018-10-18T08:26:22.500Z,15.90
2018-10-18T08:27:26.094Z,14.80
2018-10-18T08:28:29.691Z,15.83
2018-10-18T08:29:33.310Z,15.67
2018-10-18T08:30:36.902Z,16.33
2018-10-18T08:31:40.531Z,15.23
2018-10-18T08:32:44.091Z,16.67
2018-10-18T08:33:47.675Z,15.80
2018-10-18T08:34:51.292Z,16.33
2018-10-18T08:35:54.955Z,17.13
2018-10-18T08:36:58.559Z,16.67
2018-10-18T08:38:02.351Z,16.00
2018-10-18T08:39:07.487Z,18.13
2018-10-18T08:40:10.807Z,17.17
2018-10-18T08:41:14.403Z,16.57
2018-10-18T08:42:18.033Z,17.33
2018-10-18T08:43:22.033Z,17.60
2018-10-18T08:44:25.689Z,18.40
2018-10-18T08:45:29.207Z,18.13
2018-10-18T08:46:32.783Z,17.70
2018-10-18T08:47:36.403Z,17.50
2018-10-18T08:48:39.999Z,17.90
2018-10-18T08:49:43.622Z,18.93
2018-10-18T08:50:47.269Z,18.03
2018-10-18T08:51:50.860Z,19.77
2018-10-18T08:52:54.458Z,19.40
2018-10-18T08:53:58.079Z,19.30
2018-10-18T08:55:01.675Z,18.50
2018-10-18T08:56:05.667Z,19.73
2018-10-18T08:57:09.264Z,19.50
2018-10-18T08:58:13.098Z,18.43
2018-10-18T08:59:16.593Z,18.97
2018-10-18T09:00:20.083Z,18.07
2018-10-18T09:01:23.673Z,18.27
2018-10-18T09:02:27.260Z,20.17
2018-10-18T09:03:30.859Z,19.63
2018-10-18T09:04:34.459Z,20.10
2018-10-18T09:05:38.068Z,20.37
2018-10-18T09:06:41.738Z,20.60
2018-10-18T09:07:45.309Z,20.20
2018-10-18T09:08:48.908Z,20.33
2018-10-18T09:09:52.494Z,18.27
2018-10-18T09:10:56.091Z,19.63
2018-10-18T09:11:59.688Z,20.13
2018-10-18T09:13:03.493Z,19.80
2018-10-18T09:14:07.567Z,20.17
2018-10-18T09:15:11.791Z,19.63
2018-10-18T09:16:15.376Z,20.03
2018-10-18T09:17:18.963Z,19.77
2018-10-18T09:18:22.570Z,19.80
2018-10-18T09:19:26.256Z,19.10
2018-10-18T09:20:29.948Z,19.73
2018-10-18T09:21:33.553Z,21.23
2018-10-18T09:22:37.503Z,19.70
2018-10-18T09:23:41.104Z,20.73
2018-10-18T09:24:44.697Z,21.50
2018-10-18T09:25:48.292Z,22.23
2018-10-18T09:26:51.896Z,22.13
2018-10-18T09:27:55.650Z,22.13
2018-10-18T09:28:59.286Z,20.63
2018-10-18T09:30:02.847Z,20.67
2018-10-18T09:31:06.503Z,21.20
2018-10-18T09:32:10.123Z,21.13
2018-10-18T09:33:13.723Z,20.27
2018-10-18T09:34:17.331Z,20.83
2018-10-18T09:35:20.923Z,20.63
2018-10-18T09:36:24.624Z,20.90
2018-10-18T09:37:28.220Z,22.70
2018-10-18T09:38:31.862Z,21.70
2018-10-18T09:39:35.451Z,19.90
2018-10-18T09:40:39.027Z,22.40
2018-10-18T09:41:42.621Z,24.03
2018-10-18T09:42:46.211Z,23.03
2018-10-18T09:43:54.060Z,22.03
2018-10-18T09:44:57.881Z,22.57
2018-10-18T09:46:01.277Z,23.27
2018-10-18T09:47:05.147Z,21.73
2018-10-18T09:48:08.827Z,22.30
2018-10-18T09:49:12.457Z,21.93
2018-10-18T09:50:15.991Z,21.83
2018-10-18T09:51:19.593Z,21.60
2018-10-18T09:52:23.180Z,22.07
2018-10-18T09:53:26.773Z,21.60
2018-10-18T09:54:30.385Z,22.10
2018-10-18T09:55:34.150Z,22.10
2018-10-18T09:56:37.757Z,22.07
2018-10-18T09:57:41.659Z,22.53
2018-10-18T09:58:45.218Z,21.90
2018-10-18T09:59:48.847Z,22.00
2018-10-18T10:00:57.963Z,23.43
2018-10-18T10:02:06.967Z,22.20
2018-10-18T10:03:14.317Z,22.40
2018-10-18T10:04:17.924Z,23.40
2018-10-18T10:05:21.531Z,23.13
2018-10-18T10:06:25.117Z,23.20
2018-10-18T10:07:28.727Z,21.77
2018-10-18T10:08:32.324Z,21.77
2018-10-18T10:09:36.163Z,22.97
2018-10-18T10:10:39.759Z,23.43
2018-10-18T10:11:43.551Z,22.83
2018-10-18T10:12:47.176Z,23.33
2018-10-18T10:13:50.918Z,23.33
2018-10-18T10:14:54.461Z,23.93
2018-10-18T10:15:58.031Z,24.37
2018-10-18T10:17:01.717Z,23.37
2018-10-18T10:18:05.274Z,25.03
2018-10-18T10:19:08.973Z,24.20
2018-10-18T10:20:12.492Z,24.47
2018-10-18T10:21:16.088Z,26.17
2018-10-18T10:22:19.796Z,27.37
2018-10-18T10:23:23.386Z,24.27
2018-10-18T10:24:27.045Z,25.60
2018-10-18T10:25:30.607Z,24.33
2018-10-18T10:26:34.231Z,24.87
2018-10-18T10:27:38.035Z,23.37
2018-10-18T10:28:41.644Z,23.23
2018-10-18T10:29:45.227Z,23.87
2018-10-18T10:30:48.825Z,23.10
2018-10-18T10:31:52.447Z,23.23
2018-10-18T10:32:56.118Z,23.40
2018-10-18T10:33:59.647Z,23.60
2018-10-18T10:35:03.418Z,23.03
2018-10-18T10:36:07.007Z,23.40
2018-10-18T10:37:10.650Z,22.73
2018-10-18T10:38:14.339Z,22.20
2018-10-18T10:39:18.045Z,22.27
2018-10-18T10:40:21.567Z,21.43
2018-10-18T10:41:25.199Z,21.47
2018-10-18T10:42:28.782Z,22.00
2018-10-18T10:43:32.421Z,21.07
2018-10-18T10:44:36.066Z,19.77
2018-10-18T10:45:39.659Z,19.27
2018-10-18T10:46:43.192Z,20.27
2018-10-18T10:47:46.785Z,20.30
2018-10-18T10:48:50.476Z,20.90
2018-10-18T10:49:54.069Z,19.17
2018-10-18T10:50:57.807Z,19.67
2018-10-18T10:52:01.750Z,19.50
2018-10-18T10:53:05.363Z,18.40
2018-10-18T10:54:09.756Z,18.43
2018-10-18T10:55:13.312Z,17.67
2018-10-18T10:56:16.998Z,16.77
2018-10-18T10:57:20.503Z,17.70
2018-10-18T10:58:24.120Z,16.13
2018-10-18T10:59:27.695Z,15.83
2018-10-18T11:01:01.416Z,18.03
2018-10-18T11:02:05.418Z,14.37
2018-10-18T11:03:09.160Z,14.57
2018-10-18T11:04:12.793Z,12.67
2018-10-18T11:05:16.366Z,12.80
2018-10-18T11:06:20.014Z,13.90
2018-10-18T11:07:23.555Z,13.37
2018-10-18T11:08:27.154Z,12.90
2018-10-18T11:09:30.805Z,14.77
2018-10-18T11:10:34.347Z,12.80
2018-10-18T11:11:38.033Z,13.37
2018-10-18T11:12:41.603Z,11.30
2018-10-18T11:13:45.378Z,11.10
2018-10-18T11:14:48.971Z,11.47
2018-10-18T11:15:52.563Z,11.63
2018-10-18T11:16:56.153Z,9.77
2018-10-18T11:17:59.763Z,9.53
2018-10-18T11:19:03.448Z,9.00
2018-10-18T11:20:07.103Z,7.63
2018-10-18T11:21:12.248Z,8.17
2018-10-18T11:22:15.747Z,9.13
2018-10-18T11:23:19.327Z,8.47
2018-10-18T11:24:22.943Z,8.00
2018-10-18T11:25:26.544Z,8.93
2018-10-18T11:26:30.241Z,8.93
2018-10-18T11:27:33.812Z,8.37
2018-10-18T11:28:37.400Z,9.10
2018-10-18T11:29:40.995Z,9.07
2018-10-18T11:30:45.727Z,8.80
2018-10-18T11:31:49.290Z,8.43
2018-10-18T11:32:52.851Z,8.93
2018-10-18T11:33:56.412Z,9.40
2018-10-18T11:34:59.983Z,8.30
2018-10-18T11:36:03.676Z,8.73
2018-10-18T11:37:07.264Z,8.37
2018-10-18T11:38:11.246Z,9.00
2018-10-18T11:39:14.751Z,9.43
2018-10-18T11:40:18.323Z,9.10
2018-10-18T11:41:21.900Z,9.30
2018-10-18T11:42:25.506Z,8.47
2018-10-18T11:43:29.079Z,8.80
2018-10-18T11:44:38.848Z,7.70
2018-10-18T11:45:42.398Z,7.07
2018-10-18T11:46:45.970Z,5.70
2018-10-18T11:47:49.621Z,4.60
2018-10-18T11:48:53.163Z,5.10
2018-10-18T11:49:56.782Z,5.20
2018-10-18T11:51:00.326Z,4.53
2018-10-18T11:52:04.224Z,4.53
2018-10-18T11:53:07.695Z,5.17
2018-10-18T11:54:11.319Z,5.40
2018-10-18T11:55:14.856Z,4.87
2018-10-18T11:56:18.524Z,5.20
2018-10-18T11:57:21.999Z,6.13
2018-10-18T11:58:25.574Z,5.87
2018-10-18T11:59:29.155Z,5.90
2018-10-18T12:00:32.740Z,6.07
2018-10-18T12:01:36.396Z,6.80
2018-10-18T12:02:40.009Z,5.63
2018-10-18T12:03:43.511Z,6.60
2018-10-18T12:04:47.083Z,6.43
2018-10-18T12:05:50.667Z,6.60
2018-10-18T12:06:54.387Z,6.80
2018-10-18T12:07:58.255Z,6.37
2018-10-18T12:09:01.787Z,6.50
2018-10-18T12:10:05.914Z,6.63
2018-10-18T12:11:09.560Z,7.50
2018-10-18T12:12:13.117Z,7.03
2018-10-18T12:13:16.683Z,8.00
2018-10-18T12:14:20.242Z,9.00
2018-10-18T12:15:23.821Z,8.07
2018-10-18T12:16:27.423Z,9.43
2018-10-18T12:17:31.013Z,9.43
2018-10-18T12:18:34.587Z,8.20
2018-10-18T12:19:38.254Z,8.10
2018-10-18T12:20:41.803Z,7.27
2018-10-18T12:21:45.382Z,7.27
2018-10-18T12:22:48.963Z,8.27
2018-10-18T12:23:52.539Z,9.60
2018-10-18T12:24:56.145Z,8.63
2018-10-18T12:25:59.796Z,11.20
2018-10-18T12:27:03.433Z,6.67
2018-10-18T12:28:06.950Z,7.40
2018-10-18T12:29:10.637Z,7.90
2018-10-18T12:30:14.808Z,7.27
2018-10-18T12:31:18.399Z,6.03
2018-10-18T12:32:21.979Z,6.83
2018-10-18T12:33:25.559Z,5.53
2018-10-18T12:34:29.134Z,6.50
2018-10-18T12:35:32.723Z,6.33
2018-10-18T12:36:36.347Z,5.47
2018-10-18T12:37:39.912Z,5.23
2018-10-18T12:38:43.497Z,5.87
2018-10-18T12:39:47.221Z,5.67
2018-10-18T12:40:50.709Z,5.77
2018-10-18T12:41:54.242Z,6.00
2018-10-18T12:42:57.853Z,4.43
2018-10-18T12:44:01.383Z,4.57
2018-10-18T12:45:05.647Z,4.63
2018-10-18T12:46:09.189Z,4.63
2018-10-18T12:47:12.903Z,5.37
2018-10-18T12:48:16.539Z,4.93
2018-10-18T12:49:20.031Z,4.90
2018-10-18T12:50:23.583Z,4.43
2018-10-18T12:51:27.159Z,4.53
2018-10-18T12:52:30.786Z,4.50
2018-10-18T12:53:34.311Z,4.80
2018-10-18T12:54:38.174Z,4.27
2018-10-18T12:55:41.689Z,4.50
2018-10-18T12:56:45.258Z,4.67
2018-10-18T12:57:48.819Z,4.23
2018-10-18T12:58:52.387Z,4.47
2018-10-18T12:59:55.949Z,4.53
2018-10-18T13:00:59.695Z,4.77
2018-10-18T13:02:03.346Z,4.43
2018-10-18T13:03:06.827Z,4.20
2018-10-18T13:04:10.398Z,3.80
2018-10-18T13:05:13.955Z,3.90
2018-10-18T13:06:17.558Z,4.40
2018-10-18T13:07:21.146Z,4.07
2018-10-18T13:08:24.679Z,4.53
2018-10-18T13:09:28.236Z,3.93
2018-10-18T13:10:31.810Z,6.20
2018-10-18T13:11:35.615Z,4.07
2018-10-18T13:12:39.419Z,3.30
2018-10-18T13:13:42.866Z,3.00
2018-10-18T13:14:46.436Z,3.30
2018-10-18T13:15:50.052Z,4.07
2018-10-18T13:16:53.820Z,5.50
2018-10-18T13:17:57.395Z,3.07
2018-10-18T13:19:00.963Z,4.47
2018-10-18T13:20:05.460Z,5.30
2018-10-18T13:21:08.939Z,6.30
2018-10-18T13:22:12.507Z,7.90
2018-10-18T13:23:16.063Z,5.40
2018-10-18T13:24:19.767Z,5.80
2018-10-18T13:25:23.464Z,6.40
2018-10-18T13:26:27.003Z,5.93
2018-10-18T13:27:30.536Z,7.43
2018-10-18T13:28:34.095Z,3.90
2018-10-18T13:29:37.655Z,4.17
2018-10-18T13:30:41.222Z,4.83
2018-10-18T13:31:44.790Z,14.67
2018-10-18T13:32:48.377Z,3.63
2018-10-18T13:33:51.932Z,8.07
2018-10-18T13:34:55.479Z,7.37
2018-10-18T13:35:59.042Z,4.80
2018-10-18T13:37:02.623Z,3.03
2018-10-18T13:38:06.242Z,7.17
2018-10-18T13:39:11.558Z,3.03
2018-10-18T13:40:15.021Z,4.67
2018-10-18T13:41:18.610Z,4.33
2018-10-18T13:42:22.175Z,3.60
2018-10-18T13:43:25.743Z,4.67
2018-10-18T13:44:29.370Z,4.27
2018-10-18T13:45:32.899Z,6.77
2018-10-18T13:46:37.140Z,3.47